Time;durP1;ratioP1;P1;durP2;ratioP2;P2;SDS_P1;SDS_P2;PMS_P1;PMS_P2;Temp;Humidity;BMP_temperature;BMP_pressure;BME280_temperature;BME280_humidity;BME280_pressure;Samples;Min_cycle;Max_cycle;Signal;HPM_P1;HPM_P2
2023/01/10 00:01:55;;;;;;;0.85;0.85;;;;;;;10.31;68.59;98560.91;4476746;31;33874;-88
2023/01/10 00:04:25;;;;;;;0.88;0.43;;;;;;;10.69;67.43;98557.66;4472299;31;33799;-88
2023/01/10 00:06:55;;;;;;;0.17;0.17;;;;;;;10.40;68.38;98555.06;4471003;31;33688;-89
2023/01/10 00:09:23;;;;;;;1.08;0.95;;;;;;;10.37;68.55;98560.53;4481040;31;34139;-88
2023/01/10 00:14:37;;;;;;;0.73;0.65;;;;;;;10.36;68.77;98558.84;4471104;31;32644;-88
2023/01/10 00:17:06;;;;;;;2.00;0.75;;;;;;;10.37;68.66;98542.06;4477205;31;184840;-88
2023/01/10 00:19:33;;;;;;;0.60;0.60;;;;;;;10.32;69.04;98545.94;4468829;31;32217;-87
2023/01/10 00:22:07;;;;;;;0.68;0.62;;;;;;;10.31;69.06;98545.09;4465939;31;32897;-88
2023/01/10 00:24:34;;;;;;;0.55;0.55;;;;;;;10.43;68.61;98546.94;4457032;31;33005;-87
2023/01/10 00:27:02;;;;;;;1.25;0.70;;;;;;;10.37;68.78;98549.12;4481786;31;33762;-86
2023/01/10 00:29:30;;;;;;;0.20;0.20;;;;;;;10.51;68.34;98535.91;4482463;31;32223;-87
2023/01/10 00:31:58;;;;;;;1.65;0.90;;;;;;;10.70;67.79;98535.59;4489130;31;33864;-87
2023/01/10 00:34:26;;;;;;;1.48;1.23;;;;;;;10.75;67.56;98539.63;4469476;31;32506;-87
2023/01/10 00:36:54;;;;;;;2.17;0.85;;;;;;;10.59;68.01;98535.44;4482760;31;33474;-87
2023/01/10 00:39:26;;;;;;;0.30;0.28;;;;;;;10.65;67.91;98529.75;4458352;31;32203;-88
2023/01/10 00:44:40;;;;;;;0.15;0.15;;;;;;;10.86;67.25;98525.72;4484121;31;33580;-87
2023/01/10 00:47:08;;;;;;;0.15;0.15;;;;;;;10.65;67.67;98529.75;4473208;31;33235;-87
2023/01/10 00:49:36;;;;;;;0.37;0.30;;;;;;;10.49;68.30;98528.09;4483148;31;33336;-87
2023/01/10 00:52:06;;;;;;;0.22;0.22;;;;;;;10.54;68.05;98537.50;4471372;31;33086;-87
2023/01/10 00:54:33;;;;;;;1.15;0.90;;;;;;;10.70;67.61;98538.22;4473428;31;33436;-88
2023/01/10 00:57:02;;;;;;;0.82;0.40;;;;;;;10.61;67.96;98530.87;4469052;31;34568;-86
2023/01/10 00:59:30;;;;;;;0.40;0.40;;;;;;;10.51;68.31;98533.28;4471195;31;34080;-87
2023/01/10 01:01:59;;;;;;;0.90;0.45;;;;;;;10.48;68.21;98542.22;4448402;31;33930;-86
2023/01/10 01:04:27;;;;;;;0.40;0.25;;;;;;;10.49;68.08;98536.00;4470553;31;32671;-86
2023/01/10 01:06:55;;;;;;;0.20;0.20;;;;;;;10.49;68.17;98527.22;4474392;31;33999;-88
2023/01/10 01:09:26;;;;;;;0.30;0.20;;;;;;;10.60;67.73;98523.91;4465873;31;32560;-88
2023/01/10 01:11:55;;;;;;;0.20;0.20;;;;;;;10.42;68.21;98524.13;4473724;31;33919;-88
2023/01/10 01:14:24;;;;;;;0.28;0.28;;;;;;;10.48;68.18;98531.66;4471665;31;32726;-86
2023/01/10 01:16:52;;;;;;;0.17;0.17;;;;;;;10.46;68.35;98532.72;4473423;31;32812;-87
2023/01/10 01:19:27;;;;;;;0.20;0.20;;;;;;;10.45;68.37;98526.59;4477420;31;32693;-87
2023/01/10 01:21:56;;;;;;;0.37;0.37;;;;;;;10.57;68.02;98534.66;4483504;31;32473;-86
2023/01/10 01:24:27;;;;;;;0.62;0.62;;;;;;;10.47;68.06;98531.75;4471873;31;34034;-87
2023/01/10 01:26:55;;;;;;;0.00;0.00;;;;;;;10.42;68.18;98531.22;4471313;31;33894;-86
2023/01/10 01:29:23;;;;;;;0.37;0.37;;;;;;;10.43;68.33;98532.91;4470712;31;32535;-86
2023/01/10 01:31:58;;;;;;;0.25;0.25;;;;;;;10.53;67.89;98531.38;4482239;31;32180;-86
2023/01/10 01:34:26;;;;;;;0.85;0.68;;;;;;;10.58;67.64;98531.06;4470299;31;33361;-86
2023/01/10 01:36:56;;;;;;;0.00;0.00;;;;;;;10.45;68.13;98526.59;4470623;31;33853;-85
2023/01/10 01:39:24;;;;;;;0.00;0.00;;;;;;;10.58;67.50;98537.19;4473869;31;32912;-86
2023/01/10 01:41:59;;;;;;;0.32;0.32;;;;;;;10.48;67.84;98531.66;4472311;31;33904;-86
2023/01/10 01:44:32;;;;;;;0.57;0.40;;;;;;;10.82;66.25;98524.22;4457212;31;34554;-87
2023/01/10 01:47:03;;;;;;;1.08;0.50;;;;;;;10.30;67.50;98526.69;4471162;31;34595;-87
2023/01/10 01:49:37;;;;;;;0.13;0.13;;;;;;;10.03;68.75;98526.62;4484923;31;34110;-87
2023/01/10 01:52:21;;;;;;;0.30;0.30;;;;;;;10.16;68.43;98527.53;4462309;31;33423;-87
2023/01/10 01:54:53;;;;;;;1.50;1.25;;;;;;;10.05;68.28;98528.19;4482902;31;34365;-87
2023/01/10 01:57:24;;;;;;;0.22;0.15;;;;;;;10.02;68.35;98533.69;4469487;31;34022;-87
2023/01/10 01:59:54;;;;;;;0.00;0.00;;;;;;;9.95;68.72;98533.19;4483414;31;33775;-87
2023/01/10 02:02:29;;;;;;;0.00;0.00;;;;;;;10.07;68.12;98538.66;4472824;32;33808;-87
2023/01/10 02:05:12;;;;;;;0.00;0.00;;;;;;;10.06;68.12;98542.22;4479169;31;34746;-87
2023/01/10 02:07:46;;;;;;;0.08;0.08;;;;;;;10.05;67.67;98548.44;4470315;31;32808;-87
2023/01/10 02:10:28;;;;;;;0.00;0.00;;;;;;;9.84;68.32;98558.53;4472483;31;33091;-87
2023/01/10 02:13:02;;;;;;;0.00;0.00;;;;;;;9.83;68.79;98559.47;4471136;31;32674;-87
2023/01/10 02:15:30;;;;;;;0.15;0.15;;;;;;;9.62;69.57;98564.22;4473758;31;33274;-87
2023/01/10 02:18:00;;;;;;;0.00;0.00;;;;;;;9.76;68.72;98561.59;4487418;31;34161;-87
2023/01/10 02:20:31;;;;;;;0.00;0.00;;;;;;;9.86;68.30;98560.09;4469524;31;33439;-86
2023/01/10 02:23:14;;;;;;;0.00;0.00;;;;;;;9.37;69.67;98565.66;4473224;31;35032;-86
2023/01/10 02:26:23;;;;;;;0.00;0.00;;;;;;;9.60;68.82;98558.22;4474038;31;33496;-86
2023/01/10 02:29:10;;;;;;;0.00;0.00;;;;;;;9.84;67.82;98556.72;4472367;31;32585;-85
2023/01/10 02:32:16;;;;;;;0.28;0.08;;;;;;;9.83;67.83;98548.94;4469274;31;31469;-86
2023/01/10 02:34:57;;;;;;;0.00;0.00;;;;;;;9.35;69.83;98549.12;4472645;31;33550;-86
2023/01/10 02:37:38;;;;;;;0.00;0.00;;;;;;;9.47;68.71;98544.91;4488545;31;34506;-86
2023/01/10 02:40:18;;;;;;;0.00;0.00;;;;;;;9.47;69.00;98543.13;4466030;31;33321;-88
2023/01/10 02:43:09;;;;;;;0.00;0.00;;;;;;;9.44;68.94;98548.56;4473675;31;33470;-88
2023/01/10 02:45:58;;;;;;;0.00;0.00;;;;;;;8.87;70.89;98553.63;4485540;31;37072;-88
2023/01/10 02:48:26;;;;;;;0.00;0.00;;;;;;;8.98;71.00;98553.87;4459250;31;33886;-86
2023/01/10 02:51:13;;;;;;;0.00;0.00;;;;;;;9.47;69.08;98547.53;4471991;31;33402;-85
2023/01/10 02:53:46;;;;;;;0.10;0.00;;;;;;;9.43;69.04;98546.88;4483616;31;33982;-85
2023/01/10 02:56:39;;;;;;;0.00;0.00;;;;;;;9.37;69.34;98543.75;4460628;31;33715;-86
2023/01/10 02:59:14;;;;;;;;;;;;;;;9.20;69.95;98556.09;4475684;31;32830;-86
2023/01/10 03:01:55;;;;;;;0.08;0.08;;;;;;;8.77;71.00;98555.06;4472437;31;34118;-85
2023/01/10 03:04:47;;;;;;;0.00;0.00;;;;;;;8.55;72.41;98558.06;4494657;31;33830;-86
2023/01/10 03:07:42;;;;;;;0.00;0.00;;;;;;;9.26;69.57;98572.50;4480148;31;34267;-86
2023/01/10 03:10:40;;;;;;;0.00;0.00;;;;;;;9.19;69.90;98575.47;4476467;31;34533;-85
2023/01/10 03:13:15;;;;;;;0.00;0.00;;;;;;;9.29;69.34;98575.78;4466610;31;34622;-87
2023/01/10 03:15:44;;;;;;;0.00;0.00;;;;;;;9.25;69.42;98574.28;4483694;31;34026;-86
2023/01/10 03:18:18;;;;;;;0.00;0.00;;;;;;;9.27;69.11;98567.16;4467480;31;34095;-85
2023/01/10 03:20:51;;;;;;;0.00;0.00;;;;;;;9.37;68.96;98573.56;4469474;31;34701;-85
2023/01/10 03:23:19;;;;;;;0.00;0.00;;;;;;;9.21;69.24;98572.78;4467717;31;33095;-85
2023/01/10 03:25:49;;;;;;;0.15;0.15;;;;;;;9.45;68.43;98571.34;4467689;31;33312;-85
2023/01/10 03:28:22;;;;;;;0.00;0.00;;;;;;;9.57;67.93;98574.19;4474233;31;33086;-85
2023/01/10 03:30:55;;;;;;;0.00;0.00;;;;;;;8.94;70.02;98575.19;4446397;32;34274;-85
2023/01/10 03:33:29;;;;;;;0.00;0.00;;;;;;;9.26;68.75;98581.25;4455309;32;32509;-85
2023/01/10 03:36:19;;;;;;;0.00;0.00;;;;;;;9.09;69.25;98586.62;4463257;32;33130;-85
2023/01/10 03:38:53;;;;;;;0.00;0.00;;;;;;;9.25;68.91;98584.81;4462785;32;36114;-85
2023/01/10 03:41:29;;;;;;;0.13;0.13;;;;;;;8.93;69.62;98584.88;4463463;32;33562;-85
2023/01/10 03:47:18;;;;;;;0.00;0.00;;;;;;;9.14;69.26;98587.22;4476281;32;33667;-86
2023/01/10 03:49:49;;;;;;;0.00;0.00;;;;;;;9.29;68.60;98588.12;4433950;32;33115;-86
2023/01/10 03:52:18;;;;;;;0.00;0.00;;;;;;;8.84;70.17;98587.19;4455157;32;33283;-87
2023/01/10 03:54:46;;;;;;;0.20;0.20;;;;;;;9.03;69.66;98590.47;4447746;32;33291;-87
2023/01/10 03:57:20;;;;;;;0.00;0.00;;;;;;;9.13;69.02;98594.28;4461092;32;32682;-86
2023/01/10 03:59:58;;;;;;;0.00;0.00;;;;;;;9.30;68.63;98593.28;4463346;32;33630;-86
2023/01/10 04:02:29;;;;;;;0.00;0.00;;;;;;;9.42;68.12;98597.87;4456217;32;34667;-86
2023/01/10 04:04:58;;;;;;;0.00;0.00;;;;;;;9.00;69.85;98603.81;4462342;32;34250;-86
2023/01/10 04:07:26;;;;;;;0.52;0.52;;;;;;;9.21;68.50;98605.22;4459293;32;34084;-86
2023/01/10 04:09:54;;;;;;;0.00;0.00;;;;;;;9.46;68.12;98609.94;4460877;32;34567;-87
2023/01/10 04:12:23;;;;;;;0.00;0.00;;;;;;;9.44;68.11;98608.31;4460338;32;34064;-86
2023/01/10 04:14:51;;;;;;;0.00;0.00;;;;;;;9.38;68.52;98609.50;4455149;32;33536;-86
2023/01/10 04:17:19;;;;;;;0.00;0.00;;;;;;;9.39;68.52;98607.72;4436218;32;32120;-86
2023/01/10 04:19:47;;;;;;;0.00;0.00;;;;;;;9.57;67.72;98597.91;4446119;32;34133;-87
2023/01/10 04:22:15;;;;;;;0.00;0.00;;;;;;;9.42;68.05;98582.06;4461094;32;33937;-87
2023/01/10 04:24:45;;;;;;;0.10;0.10;;;;;;;9.33;68.44;98582.59;4448152;32;32527;-86
2023/01/10 04:27:14;;;;;;;0.00;0.00;;;;;;;9.58;67.37;98583.78;4460141;32;31705;-86
2023/01/10 04:29:41;;;;;;;0.00;0.00;;;;;;;9.58;67.44;98581.16;4480677;31;33490;-87
2023/01/10 04:32:09;;;;;;;0.17;0.17;;;;;;;9.41;67.96;98588.28;4469561;31;33004;-86
2023/01/10 04:34:38;;;;;;;0.00;0.00;;;;;;;9.17;69.01;98593.16;4473516;31;33142;-85
2023/01/10 04:37:06;;;;;;;0.62;0.62;;;;;;;9.24;68.81;98593.66;4489225;31;33985;-84
2023/01/10 04:39:34;;;;;;;0.00;0.00;;;;;;;9.20;68.98;98586.88;4468211;31;34593;-87
2023/01/10 04:42:02;;;;;;;0.00;0.00;;;;;;;9.14;69.52;98603.88;4473065;31;34170;-86
2023/01/10 04:44:30;;;;;;;0.00;0.00;;;;;;;9.18;69.24;98605.41;4466244;31;32855;-87
2023/01/10 04:46:58;;;;;;;0.00;0.00;;;;;;;9.02;70.03;98611.59;4454740;31;32335;-87
2023/01/10 04:49:26;;;;;;;0.08;0.08;;;;;;;9.16;69.44;98616.94;4454431;31;33102;-86
2023/01/10 04:51:54;;;;;;;0.00;0.00;;;;;;;9.27;69.31;98627.72;4465511;31;32780;-85
2023/01/10 04:54:22;;;;;;;0.00;0.00;;;;;;;9.18;69.35;98630.88;4483978;31;34463;-86
2023/01/10 04:56:50;;;;;;;0.00;0.00;;;;;;;9.16;69.42;98638.00;4456805;31;34164;-84
2023/01/10 04:59:19;;;;;;;0.00;0.00;;;;;;;9.31;68.81;98637.16;4484485;31;33197;-84
2023/01/10 05:01:46;;;;;;;0.40;0.40;;;;;;;9.15;69.46;98644.22;4487582;31;34814;-87
2023/01/10 05:04:14;;;;;;;0.00;0.00;;;;;;;9.21;69.13;98647.38;4462913;31;34136;-87
2023/01/10 05:06:42;;;;;;;0.00;0.00;;;;;;;9.49;67.81;98662.47;4468701;31;31862;-86
2023/01/10 05:09:10;;;;;;;0.90;0.30;;;;;;;9.41;68.29;98651.50;4484676;31;33391;-87
2023/01/10 05:11:42;;;;;;;0.00;0.00;;;;;;;9.38;68.24;98664.84;4456979;31;33552;-87
2023/01/10 05:14:10;;;;;;;0.00;0.00;;;;;;;9.26;68.67;98665.56;4456806;32;33009;-88
2023/01/10 05:16:38;;;;;;;0.00;0.00;;;;;;;9.45;67.99;98666.22;4447800;32;33222;-88
2023/01/10 05:19:07;;;;;;;0.47;0.47;;;;;;;9.39;68.25;98677.06;4456001;32;34384;-88
2023/01/10 05:21:35;;;;;;;0.00;0.00;;;;;;;9.17;69.02;98692.41;4456257;32;32312;-88
2023/01/10 05:24:03;;;;;;;0.00;0.00;;;;;;;8.83;70.04;98688.13;4457039;32;34065;-87
2023/01/10 05:26:32;;;;;;;0.00;0.00;;;;;;;8.93;70.03;98682.28;4460759;32;33210;-88
2023/01/10 05:29:00;;;;;;;0.08;0.08;;;;;;;9.11;69.03;98676.91;4459316;32;32347;-88
2023/01/10 05:31:28;;;;;;;0.00;0.00;;;;;;;9.07;69.30;98696.44;4441188;32;33278;-89
2023/01/10 05:33:56;;;;;;;0.00;0.00;;;;;;;8.98;69.04;98688.16;4453637;32;32500;-87
2023/01/10 05:36:26;;;;;;;0.00;0.00;;;;;;;8.88;69.58;98683.47;4456731;32;34085;-87
2023/01/10 05:38:57;;;;;;;0.00;0.00;;;;;;;8.79;70.36;98682.19;4458141;32;33448;-87
2023/01/10 05:41:25;;;;;;;0.00;0.00;;;;;;;8.83;70.01;98686.34;4454363;32;33497;-87
2023/01/10 05:43:54;;;;;;;0.00;0.00;;;;;;;9.36;68.22;98682.53;4452558;32;32503;-87
2023/01/10 05:46:22;;;;;;;0.00;0.00;;;;;;;9.10;68.76;98686.59;4451512;32;33980;-87
2023/01/10 05:48:52;;;;;;;0.00;0.00;;;;;;;9.08;68.71;98682.37;4452231;32;33899;-88
2023/01/10 05:51:21;;;;;;;0.00;0.00;;;;;;;8.98;68.95;98690.78;4457561;32;33120;-89
2023/01/10 05:53:51;;;;;;;0.00;0.00;;;;;;;8.90;69.57;98692.13;4454518;32;32942;-89
2023/01/10 05:56:21;;;;;;;0.00;0.00;;;;;;;8.78;70.45;98698.88;4441316;32;32932;-88
2023/01/10 05:58:48;;;;;;;0.00;0.00;;;;;;;8.91;69.81;98692.03;4448360;32;33060;-88
2023/01/10 06:01:31;;;;;;;0.17;0.17;;;;;;;9.08;68.79;98698.19;4440988;32;34410;-88
2023/01/10 06:03:59;;;;;;;0.00;0.00;;;;;;;8.94;69.53;98705.03;4455136;32;33809;-89
2023/01/10 06:06:28;;;;;;;0.10;0.10;;;;;;;9.03;69.37;98711.59;4453928;32;32169;-88
2023/01/10 06:08:58;;;;;;;0.30;0.30;;;;;;;8.73;70.15;98719.34;4447671;32;33870;-89
2023/01/10 06:11:28;;;;;;;1.00;0.65;;;;;;;9.29;68.38;98725.94;4460826;32;33570;-89
2023/01/10 06:14:06;;;;;;;0.00;0.00;;;;;;;9.49;67.31;98720.44;4452978;32;32959;-89
2023/01/10 06:16:35;;;;;;;0.00;0.00;;;;;;;9.15;68.52;98728.50;4445827;32;35982;-89
2023/01/10 06:19:09;;;;;;;0.00;0.00;;;;;;;9.02;68.85;98740.62;4462738;32;32126;-89
2023/01/10 06:21:42;;;;;;;0.32;0.30;;;;;;;9.17;68.16;98739.81;4425100;32;34188;-89
2023/01/10 06:24:11;;;;;;;0.00;0.00;;;;;;;8.60;70.16;98744.63;4430076;32;32936;-89
2023/01/10 06:26:39;;;;;;;1.20;0.75;;;;;;;8.73;70.07;98758.81;4433418;32;32713;-89
2023/01/10 06:29:08;;;;;;;1.85;0.20;;;;;;;8.74;69.86;98763.19;4437982;31;33844;-89
2023/01/10 06:31:35;;;;;;;0.00;0.00;;;;;;;8.30;70.85;98766.28;4451942;31;32791;-89
2023/01/10 06:34:03;;;;;;;0.25;0.25;;;;;;;8.32;71.04;98772.31;4451256;31;33329;-89
2023/01/10 06:36:33;;;;;;;0.05;0.05;;;;;;;8.40;70.77;98780.72;4477453;32;33775;-89
2023/01/10 06:39:00;;;;;;;0.00;0.00;;;;;;;8.45;70.89;98778.69;4467457;31;33834;-89
2023/01/10 06:41:31;;;;;;;0.00;0.00;;;;;;;8.69;69.96;98776.56;4463518;31;33783;-89
2023/01/10 06:44:00;;;;;;;0.00;0.00;;;;;;;8.77;69.67;98773.53;4479425;31;34510;-89
2023/01/10 06:46:29;;;;;;;0.00;0.00;;;;;;;8.86;69.22;98767.78;4466571;31;32137;-88
2023/01/10 06:48:59;;;;;;;0.00;0.00;;;;;;;8.57;70.27;98779.00;4465002;31;33674;-89
2023/01/10 06:51:27;;;;;;;0.08;0.08;;;;;;;8.57;69.74;98777.19;4453800;31;33693;-89
2023/01/10 06:53:58;;;;;;;0.00;0.00;;;;;;;8.50;70.55;98781.09;4464426;31;33554;-88
2023/01/10 06:56:27;;;;;;;0.00;0.00;;;;;;;8.48;70.45;98782.09;4467027;31;33252;-89
2023/01/10 06:58:55;;;;;;;0.35;0.30;;;;;;;8.39;70.61;98797.41;4465865;31;33753;-89
2023/01/10 07:01:24;;;;;;;0.20;0.20;;;;;;;8.26;71.16;98798.94;4464226;32;32718;-88
2023/01/10 07:03:53;;;;;;;3.92;0.30;;;;;;;8.20;71.28;98809.75;4462866;31;34253;-89
2023/01/10 07:06:23;;;;;;;0.00;0.00;;;;;;;8.39;70.83;98818.44;4465047;31;34016;-89
2023/01/10 07:08:55;;;;;;;0.00;0.00;;;;;;;8.47;70.45;98823.34;4463463;31;33403;-89
2023/01/10 07:11:25;;;;;;;0.00;0.00;;;;;;;8.48;70.10;98834.72;4462118;31;33591;-89
2023/01/10 07:13:54;;;;;;;0.00;0.00;;;;;;;8.20;70.82;98842.16;4461524;31;34253;-89
2023/01/10 07:16:22;;;;;;;0.00;0.00;;;;;;;8.18;71.19;98848.44;4472785;31;33459;-89
2023/01/10 07:18:51;;;;;;;0.00;0.00;;;;;;;8.32;70.77;98853.84;4455443;31;33813;-89
2023/01/10 07:21:20;;;;;;;0.00;0.00;;;;;;;8.31;70.42;98857.44;4448822;31;32784;-89
2023/01/10 07:23:49;;;;;;;0.00;0.00;;;;;;;8.14;71.20;98863.50;4441254;31;32341;-89
2023/01/10 07:26:19;;;;;;;0.00;0.00;;;;;;;8.38;70.41;98865.87;4450388;31;32734;-89
2023/01/10 07:28:49;;;;;;;0.00;0.00;;;;;;;8.48;69.71;98867.13;4448450;32;33225;-89
2023/01/10 07:31:21;;;;;;;0.00;0.00;;;;;;;8.12;71.45;98885.56;4446765;32;34093;-89
2023/01/10 07:33:51;;;;;;;0.30;0.30;;;;;;;7.84;72.32;98876.34;4441730;32;33092;-89
2023/01/10 07:36:23;;;;;;;0.00;0.00;;;;;;;8.12;70.93;98880.28;4444578;32;32628;-89
2023/01/10 07:38:52;;;;;;;0.00;0.00;;;;;;;8.15;71.26;98886.22;4432937;32;34433;-88
2023/01/10 07:41:22;;;;;;;0.05;0.05;;;;;;;8.23;71.15;98892.91;4434146;32;33281;-89
2023/01/10 07:43:50;;;;;;;0.10;0.10;;;;;;;8.25;70.93;98894.53;4425690;32;34663;-89
2023/01/10 07:46:17;;;;;;;0.00;0.00;;;;;;;8.19;70.69;98902.72;4428774;32;31525;-90
2023/01/10 07:48:47;;;;;;;0.00;0.00;;;;;;;8.45;70.18;98912.00;4431676;32;34472;-89
2023/01/10 07:51:18;;;;;;;0.00;0.00;;;;;;;8.38;69.69;98923.75;4437455;32;34700;-89
2023/01/10 07:53:47;;;;;;;0.00;0.00;;;;;;;8.51;69.91;98919.59;4433878;32;32565;-89
2023/01/10 07:56:15;;;;;;;0.10;0.10;;;;;;;8.65;69.31;98921.56;4452546;32;33181;-88
2023/01/10 07:58:45;;;;;;;0.20;0.20;;;;;;;8.67;69.15;98924.94;4452411;32;33190;-89
2023/01/10 08:01:14;;;;;;;0.00;0.00;;;;;;;8.76;68.54;98935.00;4440302;32;34104;-89
2023/01/10 08:03:42;;;;;;;0.10;0.10;;;;;;;8.57;69.51;98939.50;4428509;32;32642;-89
2023/01/10 08:06:10;;;;;;;0.00;0.00;;;;;;;8.56;69.40;98938.66;4428104;32;32862;-88
2023/01/10 08:08:39;;;;;;;0.00;0.00;;;;;;;8.28;70.23;98944.34;4439409;32;33839;-88
2023/01/10 08:11:09;;;;;;;0.00;0.00;;;;;;;8.44;69.64;98953.22;4443875;32;34787;-88
2023/01/10 08:13:38;;;;;;;0.00;0.00;;;;;;;8.28;69.99;98960.12;4454740;32;34051;-89
2023/01/10 08:16:07;;;;;;;0.10;0.10;;;;;;;8.29;70.51;98968.88;4434867;32;32618;-88
2023/01/10 08:18:41;;;;;;;0.00;0.00;;;;;;;8.32;70.12;98977.47;4443125;32;33189;-88
2023/01/10 08:21:10;;;;;;;0.00;0.00;;;;;;;8.35;70.02;98977.31;4443231;32;33066;-89
2023/01/10 08:23:39;;;;;;;0.00;0.00;;;;;;;8.39;69.86;98994.69;4426133;32;33727;-88
2023/01/10 08:26:08;;;;;;;0.00;0.00;;;;;;;8.11;70.63;98999.50;4445662;32;32253;-89
2023/01/10 08:28:36;;;;;;;0.00;0.00;;;;;;;8.37;69.79;99009.72;4439451;31;33915;-88
2023/01/10 08:31:06;;;;;;;0.00;0.00;;;;;;;7.76;72.19;99023.00;4472420;31;32725;-89
2023/01/10 08:33:41;;;;;;;0.00;0.00;;;;;;;8.33;70.36;99026.53;4470280;32;34232;-89
2023/01/10 08:36:21;;;;;;;0.15;0.15;;;;;;;8.57;69.31;99028.97;4482069;31;32985;-88
2023/01/10 08:38:50;;;;;;;0.00;0.00;;;;;;;8.00;71.81;99028.09;4471142;32;33740;-89
2023/01/10 08:41:22;;;;;;;0.00;0.00;;;;;;;8.27;70.60;99031.22;4473778;31;33447;-88
2023/01/10 08:43:51;;;;;;;0.00;0.00;;;;;;;8.22;70.54;99036.69;4459573;31;33130;-88
2023/01/10 08:46:24;;;;;;;0.00;0.00;;;;;;;8.25;70.67;99033.06;4456637;31;33770;-89
2023/01/10 08:48:53;;;;;;;0.13;0.13;;;;;;;8.56;69.38;99043.03;4470068;31;33545;-88
2023/01/10 08:51:22;;;;;;;0.10;0.10;;;;;;;8.24;70.16;99045.34;4468457;31;33424;-89
2023/01/10 08:53:53;;;;;;;0.00;0.00;;;;;;;8.11;70.49;99054.72;4473076;31;33200;-89
2023/01/10 08:56:22;;;;;;;0.00;0.00;;;;;;;8.31;69.74;99062.59;4463072;31;31495;-89
2023/01/10 08:58:51;;;;;;;0.00;0.00;;;;;;;8.50;68.60;99053.84;4477733;31;34138;-88
2023/01/10 09:01:23;;;;;;;0.00;0.00;;;;;;;8.46;68.88;99064.53;4476039;31;33931;-88
2023/01/10 09:03:51;;;;;;;0.00;0.00;;;;;;;8.64;68.17;99067.19;4468981;31;33345;-89
2023/01/10 09:06:21;;;;;;;0.00;0.00;;;;;;;8.26;69.90;99080.34;4467812;31;32038;-88
2023/01/10 09:08:52;;;;;;;0.00;0.00;;;;;;;8.33;69.83;99084.41;4474082;31;33686;-89
2023/01/10 09:11:21;;;;;;;0.00;0.00;;;;;;;8.36;69.66;99094.81;4457796;31;34740;-89
2023/01/10 09:13:50;;;;;;;3.20;1.17;;;;;;;8.68;68.18;99097.72;4463903;31;32302;-88
2023/01/10 09:16:23;;;;;;;0.10;0.10;;;;;;;8.63;67.99;99097.06;4472876;31;33102;-88
2023/01/10 09:18:54;;;;;;;0.00;0.00;;;;;;;8.17;68.96;99113.19;4462300;31;33253;-88
2023/01/10 09:21:23;;;;;;;0.00;0.00;;;;;;;8.46;68.33;99113.66;4476235;31;34736;-88
2023/01/10 09:23:54;;;;;;;0.00;0.00;;;;;;;8.28;68.45;99112.69;4464281;31;32708;-88
2023/01/10 09:26:22;;;;;;;0.00;0.00;;;;;;;8.44;67.74;99121.59;4471456;31;31613;-88
2023/01/10 09:28:50;;;;;;;0.03;0.03;;;;;;;8.16;69.35;99132.47;4464543;31;32252;-88
2023/01/10 09:31:22;;;;;;;0.00;0.00;;;;;;;8.08;69.70;99131.13;4484079;31;34735;-88
2023/01/10 09:33:51;;;;;;;0.00;0.00;;;;;;;8.13;69.47;99139.69;4481951;31;34077;-89
2023/01/10 09:36:21;;;;;;;0.47;0.47;;;;;;;7.89;69.49;99146.84;4460212;31;33435;-88
2023/01/10 09:38:49;;;;;;;0.00;0.00;;;;;;;7.43;71.47;99157.53;4465489;31;33702;-89
2023/01/10 09:41:42;;;;;;;0.00;0.00;;;;;;;8.15;68.93;99158.84;4478978;31;32274;-88
2023/01/10 09:44:31;;;;;;;0.00;0.00;;;;;;;8.34;68.13;99172.03;4485196;31;34659;-88
2023/01/10 09:47:00;;;;;;;;;;;;;;;8.35;68.01;99171.13;4472544;31;31799;-88
2023/01/10 09:49:46;;;;;;;0.00;0.00;;;;;;;8.14;68.57;99178.19;4471358;31;33684;-88
2023/01/10 09:52:25;;;;;;;0.00;0.00;;;;;;;7.88;69.43;99182.81;4471286;31;33123;-88
2023/01/10 09:54:56;;;;;;;0.00;0.00;;;;;;;7.96;69.14;99183.31;4470456;31;33457;-88
2023/01/10 09:57:25;;;;;;;0.00;0.00;;;;;;;7.83;69.50;99184.78;4463865;31;33282;-88
2023/01/10 09:59:55;;;;;;;0.30;0.30;;;;;;;7.78;69.29;99206.91;4470718;31;34139;-88
2023/01/10 10:02:26;;;;;;;0.00;0.00;;;;;;;7.73;69.52;99199.19;4471304;31;32516;-88
2023/01/10 10:05:17;;;;;;;0.00;0.00;;;;;;;7.87;69.07;99202.09;4461747;31;33942;-88
2023/01/10 10:07:53;;;;;;;0.00;0.00;;;;;;;7.81;69.40;99197.12;4464627;31;33026;-88
2023/01/10 10:10:38;;;;;;;1.17;0.65;;;;;;;7.66;69.57;99205.66;4476170;31;33786;-88
2023/01/10 10:13:33;;;;;;;0.62;0.62;;;;;;;7.60;69.91;99198.03;4487073;31;33998;-88
2023/01/10 10:16:24;;;;;;;0.00;0.00;;;;;;;7.48;70.47;99199.38;4475234;31;32659;-88
2023/01/10 10:19:04;;;;;;;0.00;0.00;;;;;;;7.50;70.79;99204.53;4472922;31;33702;-87
2023/01/10 10:22:09;;;;;;;0.00;0.00;;;;;;;7.50;70.14;99208.06;4492661;31;33530;-88
2023/01/10 10:24:55;;;;;;;0.00;0.00;;;;;;;7.43;71.00;99217.94;4470652;31;32640;-88
2023/01/10 10:27:57;;;;;;;0.00;0.00;;;;;;;7.23;71.55;99217.03;4487714;31;34099;-88
2023/01/10 10:30:53;;;;;;;0.00;0.00;;;;;;;7.11;72.30;99215.72;4473040;31;33993;-88
2023/01/10 10:33:45;;;;;;;0.20;0.20;;;;;;;7.46;71.51;99216.13;4469317;31;33527;-88
2023/01/10 10:36:22;;;;;;;0.00;0.00;;;;;;;7.33;71.90;99216.59;4466433;31;33787;-88
2023/01/10 10:38:52;;;;;;;0.00;0.00;;;;;;;7.34;71.86;99230.56;4462839;31;31822;-88
2023/01/10 10:41:21;;;;;;;0.03;0.03;;;;;;;7.24;71.59;99237.13;4459880;31;33575;-89
2023/01/10 10:43:49;;;;;;;0.60;0.20;;;;;;;7.22;72.24;99239.81;4469770;31;31979;-89
2023/01/10 10:46:19;;;;;;;0.00;0.00;;;;;;;7.26;72.17;99245.78;4470437;31;32790;-88
2023/01/10 10:49:00;;;;;;;0.00;0.00;;;;;;;7.38;71.87;99246.16;4458829;31;33067;-89
2023/01/10 10:51:51;;;;;;;0.00;0.00;;;;;;;7.50;71.65;99246.56;4455598;31;32659;-88
2023/01/10 10:54:19;;;;;;;0.00;0.00;;;;;;;7.52;71.44;99247.37;4470476;31;34070;-88
2023/01/10 10:56:54;;;;;;;0.00;0.00;;;;;;;7.57;71.45;99250.69;4465236;31;32267;-89
2023/01/10 10:59:28;;;;;;;0.00;0.00;;;;;;;7.68;71.12;99251.09;4457873;31;34392;-88
2023/01/10 11:01:57;;;;;;;0.00;0.00;;;;;;;7.41;72.17;99259.19;4473112;31;32377;-88
2023/01/10 11:04:27;;;;;;;0.00;0.00;;;;;;;7.65;71.08;99262.59;4468581;31;33008;-88
2023/01/10 11:06:55;;;;;;;0.10;0.10;;;;;;;7.59;71.31;99264.59;4467022;31;33530;-89
2023/01/10 11:09:30;;;;;;;0.00;0.00;;;;;;;7.46;71.75;99279.16;4459356;31;34745;-88
2023/01/10 11:11:59;;;;;;;0.00;0.00;;;;;;;7.29;71.48;99279.81;4470904;31;33391;-89
2023/01/10 11:14:41;;;;;;;0.43;0.43;;;;;;;7.34;71.25;99281.34;4469026;31;33452;-89
2023/01/10 11:17:26;;;;;;;0.20;0.20;;;;;;;7.17;73.00;99278.53;4462430;31;31859;-88
2023/01/10 11:19:56;;;;;;;0.00;0.00;;;;;;;7.59;71.38;99293.50;4467959;31;34147;-89
2023/01/10 11:22:27;;;;;;;0.00;0.00;;;;;;;7.59;71.19;99285.63;4482671;31;33611;-89
2023/01/10 11:25:00;;;;;;;0.00;0.00;;;;;;;7.61;70.94;99305.69;4455598;31;32407;-88
2023/01/10 11:27:31;;;;;;;0.00;0.00;;;;;;;7.74;70.56;99306.06;4457145;31;32853;-89
2023/01/10 11:30:07;;;;;;;0.00;0.00;;;;;;;7.68;70.94;99301.88;4455605;31;33606;-88
2023/01/10 11:32:49;;;;;;;0.00;0.00;;;;;;;7.56;71.43;99314.66;4465404;31;32884;-89
2023/01/10 11:35:28;;;;;;;0.00;0.00;;;;;;;7.81;70.36;99312.75;4464528;31;33842;-88
2023/01/10 11:37:58;;;;;;;0.00;0.00;;;;;;;7.92;70.14;99320.22;4482976;31;34046;-88
2023/01/10 11:40:31;;;;;;;0.00;0.00;;;;;;;7.75;70.55;99323.53;4480944;31;33642;-89
2023/01/10 11:43:00;;;;;;;0.00;0.00;;;;;;;7.83;70.53;99321.47;4493206;31;32915;-89
2023/01/10 11:45:33;;;;;;;0.00;0.00;;;;;;;7.71;71.17;99324.56;4457408;31;32615;-89
2023/01/10 11:48:07;;;;;;;0.00;0.00;;;;;;;7.59;70.99;99328.50;4473799;31;34168;-88
2023/01/10 11:50:41;;;;;;;0.00;0.00;;;;;;;7.76;71.02;99330.50;4456509;31;34558;-89
2023/01/10 11:53:36;;;;;;;0.00;0.00;;;;;;;7.78;71.10;99341.78;4472537;31;32829;-88
2023/01/10 11:56:10;;;;;;;0.00;0.00;;;;;;;7.81;70.89;99341.66;4469489;31;33908;-89
2023/01/10 11:58:42;;;;;;;0.00;0.00;;;;;;;7.84;70.66;99336.31;4454407;31;32781;-88
2023/01/10 12:02:00;;;;;;;0.00;0.00;;;;;;;7.88;70.81;99334.38;4473557;31;31656;-89
2023/01/10 12:04:32;;;;;;;0.00;0.00;;;;;;;7.81;70.84;99343.44;4464330;31;33497;-89
2023/01/10 12:07:07;;;;;;;0.10;0.10;;;;;;;7.62;71.62;99348.56;4486513;31;33770;-89
2023/01/10 12:09:42;;;;;;;0.00;0.00;;;;;;;7.68;71.49;99358.84;4470077;31;33412;-89
2023/01/10 12:12:24;;;;;;;0.00;0.00;;;;;;;7.72;71.32;99360.44;4476891;31;33136;-88
2023/01/10 12:14:55;;;;;;;0.00;0.00;;;;;;;7.84;70.96;99359.97;4473478;31;33307;-89
2023/01/10 12:17:29;;;;;;;0.00;0.00;;;;;;;7.85;71.14;99366.91;4457376;31;35223;-88